createdAt,value
2022-08-16T00:01:52.734Z,22.90
2022-08-16T00:04:21.812Z,22.90
2022-08-16T00:06:49.750Z,23.00
2022-08-16T00:09:17.543Z,23.10
2022-08-16T00:11:46.017Z,23.10
2022-08-16T00:14:15.937Z,23.10
2022-08-16T00:17:00.988Z,22.90
2022-08-16T00:19:41.085Z,22.70
2022-08-16T00:22:13.388Z,22.50
2022-08-16T00:24:44.878Z,22.40
2022-08-16T00:27:15.248Z,22.20
2022-08-16T00:29:45.060Z,22.10
2022-08-16T00:32:14.070Z,22.00
2022-08-16T00:34:53.177Z,22.00
2022-08-16T00:37:24.537Z,22.00
2022-08-16T00:39:57.524Z,21.80
2022-08-16T00:42:30.244Z,21.60
2022-08-16T00:45:08.427Z,21.80
2022-08-16T00:47:37.856Z,22.10
2022-08-16T00:50:08.237Z,22.10
2022-08-16T00:52:50.231Z,22.00
2022-08-16T00:55:20.247Z,22.00
2022-08-16T00:57:59.973Z,21.80
2022-08-16T01:00:29.566Z,21.80
2022-08-16T01:02:58.744Z,21.70
2022-08-16T01:05:28.447Z,21.70
2022-08-16T01:07:58.519Z,21.60
2022-08-16T01:10:32.281Z,21.60
2022-08-16T01:13:05.397Z,21.50
2022-08-16T01:15:34.236Z,21.70
2022-08-16T01:18:02.456Z,21.70
2022-08-16T01:20:34.147Z,21.60
2022-08-16T01:23:04.483Z,21.60
2022-08-16T01:25:39.899Z,21.50
2022-08-16T01:28:10.248Z,21.40
2022-08-16T01:30:50.586Z,21.40
2022-08-16T01:33:19.112Z,21.70
2022-08-16T01:35:52.490Z,21.80
2022-08-16T01:38:22.117Z,21.70
2022-08-16T01:40:56.347Z,21.60
2022-08-16T01:43:24.971Z,21.50
2022-08-16T01:45:57.536Z,21.50
2022-08-16T01:48:27.718Z,21.60
2022-08-16T01:51:09.139Z,21.80
2022-08-16T01:53:43.303Z,22.00
2022-08-16T01:56:24.817Z,22.10
2022-08-16T01:58:54.666Z,22.10
2022-08-16T02:01:22.750Z,22.30
2022-08-16T02:03:51.850Z,22.30
2022-08-16T02:06:33.557Z,22.40
2022-08-16T02:09:05.229Z,22.20
2022-08-16T02:11:47.704Z,22.00
2022-08-16T02:14:21.545Z,22.10
2022-08-16T02:16:49.692Z,22.10
2022-08-16T02:19:18.347Z,22.20
2022-08-16T02:22:08.434Z,22.20
2022-08-16T02:24:41.331Z,22.10
2022-08-16T02:27:12.007Z,22.10
2022-08-16T02:29:41.550Z,22.10
2022-08-16T02:32:50.997Z,22.10
2022-08-16T02:34:57.828Z,22.00
2022-08-16T02:37:52.059Z,21.80
2022-08-16T02:40:16.760Z,21.50
2022-08-16T02:42:45.845Z,21.30
2022-08-16T02:45:18.024Z,21.30
2022-08-16T02:48:01.063Z,21.30
2022-08-16T02:50:53.977Z,21.50
2022-08-16T02:53:23.641Z,21.60
2022-08-16T02:55:51.611Z,21.60
2022-08-16T02:58:24.791Z,21.40
2022-08-16T03:00:53.263Z,21.20
2022-08-16T03:03:24.803Z,21.40
2022-08-16T03:05:53.090Z,21.30
2022-08-16T03:08:52.444Z,21.40
2022-08-16T03:11:16.686Z,21.50
2022-08-16T03:13:53.143Z,21.30
2022-08-16T03:16:38.470Z,21.30
2022-08-16T03:19:10.858Z,21.40
2022-08-16T03:21:38.934Z,21.70
2022-08-16T03:24:29.352Z,21.60
2022-08-16T03:26:58.100Z,21.70
2022-08-16T03:29:30.408Z,21.90
2022-08-16T03:31:59.194Z,21.90
2022-08-16T03:34:27.664Z,21.90
2022-08-16T03:36:55.439Z,21.50
2022-08-16T03:39:23.391Z,21.20
2022-08-16T03:41:59.684Z,21.00
2022-08-16T03:44:44.455Z,21.10
2022-08-16T03:47:19.088Z,21.40
2022-08-16T03:49:51.857Z,21.40
2022-08-16T03:52:20.401Z,21.60
2022-08-16T03:54:53.247Z,21.40
2022-08-16T03:57:32.222Z,21.60
2022-08-16T04:00:20.397Z,21.40
2022-08-16T04:03:02.670Z,21.20
2022-08-16T04:05:33.311Z,21.00
2022-08-16T04:08:22.821Z,20.90
2022-08-16T04:10:51.717Z,21.10
2022-08-16T04:13:20.725Z,21.30
2022-08-16T04:16:09.206Z,21.30
2022-08-16T04:18:54.630Z,21.30
2022-08-16T04:21:30.943Z,21.30
2022-08-16T04:24:00.043Z,21.60
2022-08-16T04:26:31.170Z,21.40
2022-08-16T04:29:15.114Z,21.30
2022-08-16T04:31:56.255Z,21.30
2022-08-16T04:34:26.748Z,21.50
2022-08-16T04:36:54.634Z,21.60
2022-08-16T04:39:23.864Z,21.50
2022-08-16T04:41:57.090Z,21.30
2022-08-16T04:44:52.598Z,21.20
2022-08-16T04:47:21.570Z,21.20
2022-08-16T04:49:52.346Z,21.10
2022-08-16T04:52:33.068Z,21.00
2022-08-16T04:55:03.491Z,21.00
2022-08-16T04:57:31.411Z,21.20
2022-08-16T04:59:59.617Z,21.30
2022-08-16T05:02:54.930Z,21.10
2022-08-16T05:05:24.505Z,21.10
2022-08-16T05:07:58.680Z,21.30
2022-08-16T05:10:28.283Z,21.60
2022-08-16T05:12:57.534Z,21.70
2022-08-16T05:15:25.615Z,21.60
2022-08-16T05:17:58.419Z,21.60
2022-08-16T05:20:38.941Z,21.50
2022-08-16T05:23:16.956Z,21.30
2022-08-16T05:25:48.832Z,21.20
2022-08-16T05:28:17.043Z,21.20
2022-08-16T05:30:44.821Z,21.40
2022-08-16T05:33:16.661Z,21.60
2022-08-16T05:35:44.867Z,21.80
2022-08-16T05:38:30.760Z,21.80
2022-08-16T05:41:02.045Z,22.00
2022-08-16T05:43:32.176Z,21.90
2022-08-16T05:46:28.838Z,21.80
2022-08-16T05:49:05.856Z,21.50
2022-08-16T05:51:38.297Z,21.30
2022-08-16T05:54:07.498Z,20.90
2022-08-16T05:56:37.468Z,20.90
2022-08-16T05:59:06.306Z,20.90
2022-08-16T06:01:38.378Z,20.60
2022-08-16T06:04:13.137Z,20.30
2022-08-16T06:06:57.555Z,20.30
2022-08-16T06:09:43.034Z,20.20
2022-08-16T06:12:12.103Z,20.50
2022-08-16T06:14:40.278Z,20.40
2022-08-16T06:17:08.061Z,20.50
2022-08-16T06:19:39.505Z,20.50
2022-08-16T06:22:09.274Z,20.40
2022-08-16T06:24:53.373Z,20.40
2022-08-16T06:27:23.441Z,20.40
2022-08-16T06:29:51.546Z,20.70
2022-08-16T06:32:27.901Z,20.80
2022-08-16T06:35:02.279Z,20.90
2022-08-16T06:37:36.959Z,21.00
2022-08-16T06:40:12.717Z,20.90
2022-08-16T06:42:47.922Z,21.00
2022-08-16T06:45:21.849Z,21.00
2022-08-16T06:47:52.890Z,20.90
2022-08-16T06:50:29.768Z,20.90
2022-08-16T06:53:00.581Z,21.00
2022-08-16T06:55:34.159Z,21.00
2022-08-16T06:58:08.402Z,20.90
2022-08-16T07:00:37.973Z,21.00
2022-08-16T07:03:26.952Z,21.10
2022-08-16T07:05:57.912Z,21.30
2022-08-16T07:08:27.486Z,21.40
2022-08-16T07:10:55.511Z,21.50
2022-08-16T07:13:58.573Z,21.60
2022-08-16T07:16:15.539Z,21.70
2022-08-16T07:18:58.666Z,21.90
2022-08-16T07:21:28.545Z,22.00
2022-08-16T07:24:30.122Z,22.10
2022-08-16T07:26:58.462Z,22.30
2022-08-16T07:29:26.311Z,22.40
2022-08-16T07:31:59.467Z,22.50
2022-08-16T07:34:34.965Z,22.40
2022-08-16T07:37:07.528Z,22.50
2022-08-16T07:39:43.091Z,22.50
2022-08-16T07:42:25.878Z,22.80
2022-08-16T07:44:57.183Z,22.90
2022-08-16T07:47:31.293Z,23.00
2022-08-16T07:50:00.104Z,23.10
2022-08-16T07:52:34.677Z,23.20
2022-08-16T07:55:07.152Z,23.40
2022-08-16T07:57:38.053Z,23.50
2022-08-16T08:00:18.446Z,23.70
2022-08-16T08:02:46.924Z,23.70
2022-08-16T08:05:15.112Z,23.70
2022-08-16T08:07:45.262Z,23.80
2022-08-16T08:10:17.408Z,23.90
2022-08-16T08:12:59.376Z,24.10
2022-08-16T08:15:29.462Z,24.20
2022-08-16T08:18:29.243Z,24.20
2022-08-16T08:20:59.382Z,24.20
2022-08-16T08:23:28.908Z,24.50
2022-08-16T08:25:56.619Z,24.50
2022-08-16T08:28:25.797Z,24.50
2022-08-16T08:31:01.399Z,24.70
2022-08-16T08:33:31.313Z,24.60
2022-08-16T08:36:01.100Z,24.70
2022-08-16T08:38:43.643Z,24.90
2022-08-16T08:41:12.928Z,25.10
2022-08-16T08:43:41.928Z,25.30
2022-08-16T08:46:17.887Z,25.60
2022-08-16T08:48:59.503Z,25.80
2022-08-16T08:51:35.932Z,26.00
2022-08-16T08:54:09.306Z,26.20
2022-08-16T08:56:37.684Z,26.30
2022-08-16T08:59:19.818Z,26.40
2022-08-16T09:01:57.601Z,26.60
2022-08-16T09:04:26.828Z,26.90
2022-08-16T09:06:54.828Z,27.20
2022-08-16T09:09:24.063Z,27.30
2022-08-16T09:11:53.510Z,27.40
2022-08-16T09:14:27.913Z,27.40
2022-08-16T09:17:03.467Z,27.20
2022-08-16T09:19:34.050Z,27.20
2022-08-16T09:22:02.363Z,27.50
2022-08-16T09:24:51.354Z,27.50
2022-08-16T09:27:19.393Z,27.70
2022-08-16T09:29:47.301Z,28.00
2022-08-16T09:32:30.490Z,28.20
2022-08-16T09:34:59.214Z,28.50
2022-08-16T09:37:29.708Z,28.70
2022-08-16T09:40:00.460Z,28.40
2022-08-16T09:42:28.883Z,28.40
2022-08-16T09:45:11.604Z,28.50
2022-08-16T09:47:56.821Z,28.50
2022-08-16T09:50:38.198Z,28.60
2022-08-16T09:53:15.108Z,28.60
2022-08-16T09:55:49.547Z,28.80
2022-08-16T09:58:41.759Z,28.90
2022-08-16T10:01:06.372Z,29.20
2022-08-16T10:03:36.409Z,29.70
2022-08-16T10:06:04.725Z,30.00
2022-08-16T10:08:32.965Z,29.40
2022-08-16T10:11:50.288Z,29.00
2022-08-16T10:14:19.838Z,28.70
2022-08-16T10:16:59.627Z,28.60
2022-08-16T10:19:31.995Z,28.80
2022-08-16T10:22:04.821Z,29.30
2022-08-16T10:24:33.800Z,29.40
2022-08-16T10:27:22.261Z,29.60
2022-08-16T10:29:59.473Z,29.90
2022-08-16T10:32:30.317Z,30.30
2022-08-16T10:34:58.895Z,30.60
2022-08-16T10:37:35.727Z,30.70
2022-08-16T10:40:06.072Z,30.90
2022-08-16T10:42:35.233Z,31.10
2022-08-16T10:45:03.806Z,31.00
2022-08-16T10:47:38.069Z,31.00
2022-08-16T10:50:07.420Z,30.90
2022-08-16T10:52:49.874Z,30.80
2022-08-16T10:58:11.454Z,31.30
2022-08-16T11:00:40.777Z,32.00
2022-08-16T11:03:42.676Z,32.00
2022-08-16T11:06:00.715Z,31.90
2022-08-16T11:08:35.156Z,31.80
2022-08-16T11:11:08.223Z,31.70
2022-08-16T11:13:59.844Z,31.80
2022-08-16T11:19:19.043Z,32.30
2022-08-16T11:24:42.389Z,32.30
2022-08-16T11:27:23.903Z,32.10
2022-08-16T11:29:55.754Z,31.90
2022-08-16T11:32:29.929Z,32.00
2022-08-16T11:35:13.811Z,31.90
2022-08-16T11:40:33.155Z,31.50
2022-08-16T11:43:01.313Z,31.20
2022-08-16T11:45:33.830Z,31.10
2022-08-16T11:48:02.925Z,31.40
2022-08-16T11:50:33.247Z,32.00
2022-08-16T11:53:03.372Z,32.40
2022-08-16T11:55:32.516Z,32.80
2022-08-16T11:58:01.228Z,33.30
2022-08-16T12:00:34.172Z,33.50
2022-08-16T12:03:19.607Z,33.50
2022-08-16T12:05:57.529Z,33.10
2022-08-16T12:08:26.088Z,32.90
2022-08-16T12:10:55.268Z,32.70
2022-08-16T12:13:27.374Z,32.60
2022-08-16T12:15:56.898Z,32.90
2022-08-16T12:18:25.148Z,33.00
2022-08-16T12:20:55.343Z,33.30
2022-08-16T12:23:25.962Z,33.30
2022-08-16T12:25:54.154Z,33.50
2022-08-16T12:28:36.865Z,33.60
2022-08-16T12:31:11.260Z,34.20
2022-08-16T12:33:44.948Z,34.70
2022-08-16T12:36:14.017Z,35.30
2022-08-16T12:38:48.474Z,35.60
2022-08-16T12:41:24.721Z,35.40
2022-08-16T12:43:57.153Z,35.70
2022-08-16T12:46:31.090Z,35.60
2022-08-16T12:48:58.676Z,35.40
2022-08-16T12:51:32.943Z,35.00
2022-08-16T12:54:16.693Z,34.70
2022-08-16T12:56:46.818Z,34.70
2022-08-16T12:59:19.853Z,34.40
2022-08-16T13:01:50.333Z,34.40
2022-08-16T13:04:24.698Z,34.20
2022-08-16T13:06:53.387Z,33.90
2022-08-16T13:09:24.129Z,33.90
2022-08-16T13:12:00.223Z,34.10
2022-08-16T13:14:31.234Z,34.70
2022-08-16T13:17:03.898Z,34.90
2022-08-16T13:19:56.313Z,35.00
2022-08-16T13:22:22.883Z,34.90
2022-08-16T13:24:52.611Z,34.80
2022-08-16T13:27:20.714Z,34.70
2022-08-16T13:30:02.630Z,34.90
2022-08-16T13:32:52.227Z,35.40
2022-08-16T13:35:20.113Z,36.10
2022-08-16T13:37:48.024Z,36.50
2022-08-16T13:40:19.811Z,37.10
2022-08-16T13:42:49.514Z,37.30
2022-08-16T13:45:17.888Z,37.10
2022-08-16T13:47:52.951Z,37.20
2022-08-16T13:50:31.349Z,37.30
2022-08-16T13:53:10.184Z,37.70
2022-08-16T13:55:40.954Z,37.90
2022-08-16T13:58:36.553Z,38.10
2022-08-16T14:01:00.131Z,37.90
2022-08-16T14:03:30.226Z,36.90
2022-08-16T14:05:59.480Z,36.20
2022-08-16T14:08:27.598Z,35.70
2022-08-16T14:10:55.493Z,35.20
2022-08-16T14:13:24.539Z,35.60
2022-08-16T14:15:52.659Z,35.70
2022-08-16T14:18:21.045Z,35.30
2022-08-16T14:20:51.258Z,35.40
2022-08-16T14:23:23.739Z,35.50
2022-08-16T14:25:53.926Z,35.80
2022-08-16T14:28:23.690Z,36.10
2022-08-16T14:30:54.072Z,36.60
2022-08-16T14:33:21.932Z,37.10
2022-08-16T14:35:50.803Z,36.90
2022-08-16T14:38:23.514Z,36.90
2022-08-16T14:40:55.162Z,37.00
2022-08-16T14:43:23.870Z,37.20
2022-08-16T14:45:54.667Z,36.80
2022-08-16T14:48:26.246Z,36.40
2022-08-16T14:50:54.607Z,35.70
2022-08-16T14:53:25.632Z,35.60
2022-08-16T14:55:54.615Z,35.90
2022-08-16T14:58:28.469Z,35.90
2022-08-16T15:01:04.621Z,36.10
2022-08-16T15:03:33.121Z,36.30
2022-08-16T15:06:01.726Z,36.50
2022-08-16T15:08:36.727Z,36.70
2022-08-16T15:11:05.411Z,36.90
2022-08-16T15:13:33.511Z,37.00
2022-08-16T15:16:02.989Z,37.20
2022-08-16T15:18:32.367Z,37.40
2022-08-16T15:21:01.710Z,37.50
2022-08-16T15:23:33.613Z,37.50
2022-08-16T15:26:04.241Z,37.50
2022-08-16T15:28:37.077Z,37.10
2022-08-16T15:31:06.532Z,37.00
2022-08-16T15:33:35.566Z,36.40
2022-08-16T15:36:07.767Z,35.80
2022-08-16T15:39:03.873Z,35.50
2022-08-16T15:41:44.218Z,35.30
2022-08-16T15:44:21.328Z,35.70
2022-08-16T15:46:56.419Z,35.90
2022-08-16T15:49:38.022Z,35.90
2022-08-16T15:52:08.074Z,35.70
2022-08-16T15:54:52.373Z,35.70
2022-08-16T15:57:24.377Z,35.50
2022-08-16T15:59:55.822Z,35.70
2022-08-16T16:02:29.462Z,35.60
2022-08-16T16:05:01.447Z,35.40
2022-08-16T16:07:30.878Z,35.40
2022-08-16T16:09:59.227Z,34.90
2022-08-16T16:12:53.760Z,34.40
2022-08-16T16:15:17.461Z,34.10
2022-08-16T16:17:51.305Z,33.80
2022-08-16T16:20:20.700Z,33.70
2022-08-16T16:22:49.304Z,33.60
2022-08-16T16:25:18.622Z,33.30
2022-08-16T16:27:55.782Z,33.00
2022-08-16T16:30:37.284Z,32.80
2022-08-16T16:33:11.467Z,32.60
2022-08-16T16:35:46.872Z,32.40
2022-08-16T16:38:16.267Z,32.10
2022-08-16T16:40:54.135Z,32.00
2022-08-16T16:43:25.510Z,31.80
2022-08-16T16:45:53.413Z,31.60
2022-08-16T16:48:21.984Z,31.50
2022-08-16T16:50:58.108Z,31.40
2022-08-16T16:53:31.873Z,31.40
2022-08-16T16:56:08.707Z,31.30
2022-08-16T16:58:58.021Z,31.20
2022-08-16T17:01:41.166Z,31.20
2022-08-16T17:04:23.995Z,31.00
2022-08-16T17:06:59.967Z,30.80
2022-08-16T17:09:27.699Z,30.60
2022-08-16T17:11:56.013Z,30.60
2022-08-16T17:14:31.962Z,30.40
2022-08-16T17:17:01.853Z,30.10
2022-08-16T17:19:31.823Z,30.00
2022-08-16T17:21:59.776Z,30.10
2022-08-16T17:24:31.402Z,30.00
2022-08-16T17:27:07.969Z,29.90
2022-08-16T17:29:42.904Z,29.80
2022-08-16T17:32:33.606Z,29.60
2022-08-16T17:35:08.610Z,29.50
2022-08-16T17:37:48.731Z,29.40
2022-08-16T17:40:40.356Z,29.40
2022-08-16T17:43:12.509Z,29.30
2022-08-16T17:45:42.930Z,29.10
2022-08-16T17:48:11.062Z,29.10
2022-08-16T17:50:39.059Z,29.00
2022-08-16T17:53:07.366Z,28.90
2022-08-16T17:55:36.340Z,28.90
2022-08-16T17:58:20.153Z,28.90
2022-08-16T18:00:52.538Z,28.80
2022-08-16T18:04:09.256Z,28.80
2022-08-16T18:06:13.121Z,28.80
2022-08-16T18:08:41.401Z,28.70
2022-08-16T18:11:12.723Z,28.70
2022-08-16T18:13:42.907Z,28.60
2022-08-16T18:16:12.246Z,28.50
2022-08-16T18:18:39.934Z,28.40
2022-08-16T18:21:25.660Z,28.30
2022-08-16T18:23:53.375Z,28.20
2022-08-16T18:26:21.179Z,28.10
2022-08-16T18:28:49.069Z,28.00
2022-08-16T18:31:18.407Z,27.80
2022-08-16T18:33:46.143Z,27.80
2022-08-16T18:36:20.961Z,27.60
2022-08-16T18:38:49.302Z,27.50
2022-08-16T18:41:17.184Z,27.40
2022-08-16T18:44:23.245Z,27.40
2022-08-16T18:46:35.755Z,27.30
2022-08-16T18:49:03.667Z,27.20
2022-08-16T18:51:31.604Z,27.10
2022-08-16T18:53:59.359Z,26.90
2022-08-16T18:56:55.053Z,26.80
2022-08-16T18:59:14.816Z,26.70
2022-08-16T19:01:43.900Z,26.60
2022-08-16T19:04:52.072Z,26.50
2022-08-16T19:06:59.489Z,26.40
2022-08-16T19:09:27.187Z,26.30
2022-08-16T19:11:54.927Z,26.20
2022-08-16T19:14:29.869Z,26.00
2022-08-16T19:16:58.900Z,26.00
2022-08-16T19:19:26.612Z,25.90
2022-08-16T19:21:54.601Z,25.70
2022-08-16T19:24:22.300Z,25.60
2022-08-16T19:26:57.280Z,25.60
2022-08-16T19:29:25.023Z,25.40
2022-08-16T19:31:52.742Z,25.40
2022-08-16T19:34:21.851Z,25.30
2022-08-16T19:36:49.583Z,25.20
2022-08-16T19:39:18.207Z,25.10
2022-08-16T19:41:53.423Z,25.00
2022-08-16T19:44:21.919Z,25.00
2022-08-16T19:46:49.690Z,24.90
2022-08-16T19:49:17.474Z,24.80
2022-08-16T19:51:46.908Z,24.70
2022-08-16T19:54:14.877Z,24.60
2022-08-16T19:56:42.625Z,24.60
2022-08-16T19:59:19.830Z,24.50
2022-08-16T20:01:50.990Z,24.40
2022-08-16T20:04:18.771Z,24.40
2022-08-16T20:06:48.208Z,24.30
2022-08-16T20:09:16.460Z,24.30
2022-08-16T20:11:44.597Z,24.20
2022-08-16T20:14:24.940Z,24.20
2022-08-16T20:16:54.322Z,24.10
2022-08-16T20:19:22.077Z,24.00
2022-08-16T20:21:51.162Z,24.00
2022-08-16T20:24:35.958Z,23.90
2022-08-16T20:27:04.504Z,23.80
2022-08-16T20:29:32.214Z,23.80
2022-08-16T20:32:00.021Z,23.70
2022-08-16T20:34:27.755Z,23.70
2022-08-16T20:36:56.866Z,23.60
2022-08-16T20:39:24.973Z,23.60
2022-08-16T20:41:52.752Z,23.60
2022-08-16T20:44:22.731Z,23.70
2022-08-16T20:46:52.869Z,23.70
2022-08-16T20:49:20.719Z,23.60
2022-08-16T20:51:51.701Z,23.60
2022-08-16T20:54:22.863Z,23.60
2022-08-16T20:56:50.622Z,23.70
2022-08-16T20:59:18.353Z,23.80
2022-08-16T21:01:50.255Z,23.70
2022-08-16T21:04:19.404Z,23.50
2022-08-16T21:06:53.462Z,23.60
2022-08-16T21:09:24.749Z,23.60
2022-08-16T21:11:53.449Z,23.60
2022-08-16T21:14:21.211Z,23.70
2022-08-16T21:16:48.918Z,23.70
2022-08-16T21:19:16.639Z,23.70
2022-08-16T21:21:44.523Z,23.70
2022-08-16T21:24:12.308Z,23.80
2022-08-16T21:26:41.453Z,23.80
2022-08-16T21:29:24.884Z,23.70
2022-08-16T21:31:52.970Z,23.60
2022-08-16T21:34:20.698Z,23.70
2022-08-16T21:36:48.680Z,23.70
2022-08-16T21:39:16.397Z,23.60
2022-08-16T21:41:45.420Z,23.40
2022-08-16T21:44:13.144Z,23.40
2022-08-16T21:46:41.163Z,23.50
2022-08-16T21:49:08.888Z,23.40
2022-08-16T21:51:36.896Z,23.40
2022-08-16T21:54:04.756Z,23.40
2022-08-16T21:56:32.536Z,23.30
2022-08-16T21:59:06.185Z,23.30
2022-08-16T22:01:33.926Z,23.20
2022-08-16T22:04:35.499Z,23.20
2022-08-16T22:06:49.484Z,23.40
2022-08-16T22:09:17.250Z,23.40
2022-08-16T22:11:45.364Z,23.50
2022-08-16T22:14:15.101Z,23.60
2022-08-16T22:16:43.410Z,23.50
2022-08-16T22:19:11.538Z,23.50
2022-08-16T22:21:39.267Z,23.60
2022-08-16T22:24:07.171Z,23.50
2022-08-16T22:26:39.576Z,23.50
2022-08-16T22:29:11.322Z,23.50
2022-08-16T22:31:40.896Z,23.50
2022-08-16T22:34:09.018Z,23.50
2022-08-16T22:36:37.017Z,23.40
2022-08-16T22:39:06.385Z,23.30
2022-08-16T22:41:34.810Z,23.40
2022-08-16T22:44:03.606Z,23.40
2022-08-16T22:46:31.715Z,23.40
2022-08-16T22:49:00.838Z,23.30
2022-08-16T22:51:29.188Z,23.10
2022-08-16T22:53:57.684Z,23.00
2022-08-16T22:56:26.120Z,22.80
2022-08-16T22:58:53.923Z,22.70
2022-08-16T23:01:22.515Z,22.50
2022-08-16T23:03:50.373Z,22.50
2022-08-16T23:06:19.434Z,22.40
2022-08-16T23:08:47.156Z,22.50
2022-08-16T23:11:22.606Z,22.50
2022-08-16T23:13:53.403Z,22.50
2022-08-16T23:16:22.998Z,22.70
2022-08-16T23:18:53.316Z,22.70
2022-08-16T23:21:22.450Z,22.80
2022-08-16T23:23:54.111Z,22.70
2022-08-16T23:26:44.636Z,22.80
2022-08-16T23:29:16.018Z,22.90
2022-08-16T23:31:53.428Z,23.00
2022-08-16T23:34:21.858Z,23.10
2022-08-16T23:36:50.987Z,23.10
2022-08-16T23:39:18.719Z,23.00
2022-08-16T23:41:46.458Z,23.00
2022-08-16T23:44:56.584Z,23.00
2022-08-16T23:47:02.042Z,23.00
2022-08-16T23:49:58.509Z,22.90
2022-08-16T23:52:53.549Z,22.70
2022-08-16T23:55:08.494Z,22.70
2022-08-16T23:57:36.256Z,22.80
